Leesburg, VA

10:24 PM EST on November 23, 2014 (GMT -0500)
Washington Dulles International | Change Station
CLOSE
Current Station
Airport
Location: Dulles Airport,
Elevation: 322 ft
Nearby Weather Stations

Elev 322 ft 38.93 °N, 77.45 °W | Updated 32 minutes ago

Regn
Regn
50 °F
Feels Like 50 °F
N
7
Vind Växlande Vind from SO

Idag
High -- | Low -- °F
--% Chance of Precip.
Yesterday
High -- | Low -- °F
Precip. -- tum
7:02 AM 4:51 PM
Första kvarteret, 3% visible
Lufttryck 29.91 tum
Sikt 3.0 miles
Molnigt Mestadels molnigt 600 ft
Molnigt 1000 ft
Daggpunkt 50 °F
Luftfuktighet 100%
Rainfall 0.01 tum
Snow Depth Not available.
UV 0 out of 12
Pollen .10 out of 12
Air Quality Not available.
Flu Activity Not available.
METAR KIAD 240252Z 13006KT 3SM -RA BR BKN006 OVC010 10/10 A2991 RMK AO2 DZB16E47RAB47 SLP128 P0000 60001 T01000100 58037 $

More Conditions Fewer Conditions

Lufttryck 29.91 tum
Sikt 3.0 miles
Molnigt Mestadels molnigt 600 ft
Molnigt 1000 ft
Daggpunkt 50 °F
Luftfuktighet 100%
Rainfall 0.01 tum
Snow Depth Not available.
UV 0 out of 12
Pollen .10 out of 12
Air Quality Not available.
Flu Activity Not available.
METAR KIAD 240252Z 13006KT 3SM -RA BR BKN006 OVC010 10/10 A2991 RMK AO2 DZB16E47RAB47 SLP128 P0000 60001 T01000100 58037 $

More Conditions Fewer Conditions

10-Day Weather Forecast

Almanac

Astronomi

Nov. 23, 2014 Rise Set
Actual Time
Civil Twilight
Nautical Twilight
Astronomical Twilight
Månen
Length Of Visible Light
Dagens längd
Tomorrow will be .
, % of the Moon is Illuminated

Today's Extremes

State Highs State Lows

Community

WunderPhotos

Upload Photos

1,773,257 photos uploaded!

WunderBlogs® & News

Nearby

Air Quality

  Air Quality AQ Index Pollutant
Not available.

Snödjup

Station Depth Elevation

Earthquake Activity

Stad Distance Mag. Time & Date
Minimum magnitude displayed is 2.5.

Coastal Water Temperatures

Plats Temperatur

Nearby Weather Stations